Data 6h 24m oldSlow mover (0.1/day)
Cheapest Found
Connecting
Based on 111 sales
Active Listings
10 listingsExclude Datacenters
| price | qty. | total | retainer name | world | datacenter | first seen |
|---|---|---|---|---|---|---|
2,574 | 1 | 2,574 | Mountain-dew | Typhon | Elemental | 2026-09-03 22:59 UTC |
3,940 | 1 | 3,940 | Go-jag | Typhon | Elemental | 2026-09-03 11:12 UTC |
5,000 | 1 | 5,000 | Huwatthi | Typhon | Elemental | 2026-08-24 09:38 UTC |
6,900 | 1 | 6,900 | Azaishi | Typhon | Elemental | 2026-08-19 23:18 UTC |
8,100 | 1 | 8,100 | One-gillet | Typhon | Elemental | 2026-08-18 09:25 UTC |
12,975 | 1 | 12,975 | Vavio | Typhon | Elemental | 2026-08-11 23:15 UTC |
12,999 | 1 | 12,999 | Aellquwe | Typhon | Elemental | 2026-08-11 23:15 UTC |
13,000 | 1 | 13,000 | Tempra | Typhon | Elemental | 2026-08-11 23:15 UTC |
18,000 | 1 | 18,000 | Supika' | Typhon | Elemental | 2026-08-20 11:34 UTC |
50,000 | 1 | 50,000 | Decouvreur | Typhon | Elemental | 2026-08-30 00:02 UTC |
Sale History
| hq | price | qty. | total | purchaser | world | datacenter | time sold |
|---|---|---|---|---|---|---|---|
12,989 | 1 | 12,989 | Pupu Rara | Typhon | Elemental | 2026-07-12 16:25 UTC | |
1,500 | 1 | 1,500 | Ael Feira | Typhon | Elemental | 2026-07-12 16:20 UTC | |
1,200 | 1 | 1,200 | Galahad Arden | Typhon | Elemental | 2026-07-04 03:53 UTC | |
6,666 | 1 | 6,666 | Cing Mu | Typhon | Elemental | 2026-06-13 11:07 UTC | |
44,991 | 1 | 44,991 | Mitsunari Ishida | Typhon | Elemental | 2026-05-15 06:13 UTC | |
10,000 | 1 | 10,000 | Nate Sanguinar | Typhon | Elemental | 2026-05-02 17:29 UTC | |
9,999 | 1 | 9,999 | Veruma Montana | Typhon | Elemental | 2026-04-19 00:53 UTC | |
5,500 | 1 | 5,500 | Liggy Knight | Typhon | Elemental | 2026-02-24 11:59 UTC | |
4,399 | 1 | 4,399 | Miiiiiz Meow | Typhon | Elemental | 2026-01-31 17:25 UTC | |
3,574 | 1 | 3,574 | Shiron Merkredo | Typhon | Elemental | 2026-01-23 02:04 UTC |
Loading…
Advertisementsads are optional. you may disable or enable them under Settings